Time;durP1;ratioP1;P1;durP2;ratioP2;P2;SDS_P1;SDS_P2;PMS_P1;PMS_P2;Temp;Humidity;BMP_temperature;BMP_pressure;BME280_temperature;BME280_humidity;BME280_pressure;Samples;Min_cycle;Max_cycle;Signal;HPM_P1;HPM_P2
2024/03/13 00:00:13;;;;;;;5.47;2.70;;;;;;;1.11;70.84;101572.31;5055680;28;20959;-81
2024/03/13 00:02:41;;;;;;;5.80;2.60;;;;;;;1.15;70.59;101576.72;5048573;28;20456;-80
2024/03/13 00:05:10;;;;;;;6.47;2.97;;;;;;;1.16;70.89;101581.94;5054614;28;20453;-80
2024/03/13 00:07:38;;;;;;;5.33;3.00;;;;;;;1.15;70.53;101576.72;5050418;28;20478;-81
2024/03/13 00:10:07;;;;;;;5.13;3.17;;;;;;;1.14;70.64;101569.84;5043838;28;20488;-80
2024/03/13 00:12:35;;;;;;;5.40;2.77;;;;;;;1.17;70.85;101572.50;5050219;28;20492;-81
2024/03/13 00:15:03;;;;;;;4.17;2.70;;;;;;;1.17;70.75;101570.78;5052195;28;20517;-81
2024/03/13 00:17:32;;;;;;;3.70;2.37;;;;;;;1.18;70.97;101576.81;5050095;28;20446;-81
2024/03/13 00:19:59;;;;;;;6.37;3.00;;;;;;;1.16;71.01;101573.31;5059067;28;20458;-80
2024/03/13 00:22:26;;;;;;;7.10;2.83;;;;;;;1.18;70.38;101574.22;5058677;28;20438;-79
2024/03/13 00:24:56;;;;;;;4.33;2.80;;;;;;;1.05;71.08;101551.50;5056304;28;20468;-82
2024/03/13 00:27:24;;;;;;;6.20;3.17;;;;;;;1.18;70.68;101580.25;5048781;28;20430;-81
2024/03/13 00:29:51;;;;;;;7.07;3.30;;;;;;;1.18;70.55;101585.41;5054198;28;20521;-81
2024/03/13 00:32:20;;;;;;;5.73;2.80;;;;;;;1.17;71.09;101587.97;5050429;28;20485;-80
2024/03/13 00:34:48;;;;;;;6.43;2.97;;;;;;;1.13;70.94;101576.66;5056984;28;20513;-81
2024/03/13 00:37:16;;;;;;;3.67;2.43;;;;;;;1.20;70.93;101588.91;5053285;28;20805;-80
2024/03/13 00:39:44;;;;;;;5.63;2.90;;;;;;;1.19;70.81;101581.13;5046642;28;20456;-80
2024/03/13 00:42:12;;;;;;;4.07;2.53;;;;;;;1.21;70.75;101595.81;5049736;28;20545;-81
2024/03/13 00:44:39;;;;;;;4.00;2.70;;;;;;;1.17;70.68;101585.38;5051619;28;20448;-79
2024/03/13 00:47:06;;;;;;;4.33;2.50;;;;;;;1.20;70.89;101583.75;5050691;28;20438;-80
2024/03/13 00:49:33;;;;;;;5.50;2.53;;;;;;;1.22;70.99;101594.09;5056539;28;20456;-81
2024/03/13 00:52:02;;;;;;;5.70;2.83;;;;;;;1.23;71.11;101593.28;5054958;28;20450;-80
2024/03/13 00:54:30;;;;;;;4.13;2.60;;;;;;;1.22;70.62;101587.25;5040276;28;20479;-82
2024/03/13 00:56:57;;;;;;;5.40;2.20;;;;;;;1.23;70.53;101582.97;5053862;28;20938;-80
2024/03/13 00:59:26;;;;;;;3.17;2.00;;;;;;;1.22;71.08;101589.84;5057836;28;20496;-80
2024/03/13 01:01:55;;;;;;;3.47;2.50;;;;;;;1.22;70.71;101582.09;5051434;28;20447;-82
2024/03/13 01:04:24;;;;;;;4.90;2.73;;;;;;;1.24;71.06;101588.16;5049003;28;20453;-79
2024/03/13 01:06:52;;;;;;;5.37;2.50;;;;;;;1.23;70.76;101572.66;5049909;28;20589;-81
2024/03/13 01:09:23;;;;;;;4.00;2.63;;;;;;;1.25;70.72;101578.75;5040921;28;20449;-81
2024/03/13 01:11:50;;;;;;;5.67;2.83;;;;;;;1.26;70.92;101583.06;5052299;28;20954;-81
2024/03/13 01:14:19;;;;;;;4.40;3.00;;;;;;;1.26;70.75;101575.31;5055942;28;20485;-81
2024/03/13 01:16:49;;;;;;;5.40;2.87;;;;;;;1.27;70.66;101574.47;5054585;28;20456;-80
2024/03/13 01:19:16;;;;;;;3.67;2.60;;;;;;;1.27;71.03;101576.19;5044561;28;20440;-81
2024/03/13 01:21:43;;;;;;;6.00;3.00;;;;;;;1.26;70.97;101567.59;5046365;28;20457;-81
2024/03/13 01:24:11;;;;;;;3.93;2.70;;;;;;;1.27;70.94;101569.31;5049315;28;20440;-81
2024/03/13 01:26:39;;;;;;;5.70;2.87;;;;;;;1.28;71.11;101565.03;5053205;28;20957;-79
2024/03/13 01:29:07;;;;;;;4.27;2.80;;;;;;;1.29;70.90;101565.09;5055810;28;20461;-80
2024/03/13 01:31:35;;;;;;;5.20;2.87;;;;;;;1.25;70.75;101558.13;5057991;28;20446;-81
2024/03/13 01:34:04;;;;;;;9.03;3.13;;;;;;;1.31;70.77;101573.75;5043902;28;20551;-81
2024/03/13 01:39:17;;;;;;;4.27;2.73;;;;;;;1.33;71.21;101572.06;5047849;28;20987;-81
2024/03/13 01:55:35;;;;;;;4.33;2.63;;;;;;;1.34;70.89;101554.94;5053100;28;20477;-82
2024/03/13 01:58:10;;;;;;;3.93;2.70;;;;;;;1.34;71.12;101553.22;5053642;28;20494;-80
2024/03/13 02:03:23;;;;;;;4.60;2.93;;;;;;;1.36;71.32;101559.28;5049778;28;20798;-81
2024/03/13 02:05:51;;;;;;;6.27;3.47;;;;;;;1.36;71.14;101556.72;5052887;28;21165;-80
2024/03/13 02:08:20;;;;;;;6.70;3.20;;;;;;;1.38;71.49;101552.44;5052916;28;20461;-81
2024/03/13 02:10:48;;;;;;;5.53;3.57;;;;;;;1.38;71.28;101549.88;5060047;28;20446;-80
2024/03/13 02:13:18;;;;;;;5.00;3.13;;;;;;;1.39;71.25;101545.59;5056321;28;20943;-81
2024/03/13 02:15:46;;;;;;;8.57;3.37;;;;;;;1.39;71.17;101549.06;5059475;28;20481;-81
2024/03/13 02:18:19;;;;;;;8.37;3.93;;;;;;;1.40;71.29;101540.50;5044157;28;20467;-80
2024/03/13 02:20:47;;;;;;;6.70;3.63;;;;;;;1.34;71.05;101531.72;5052675;28;20515;-81
2024/03/13 02:23:21;;;;;;;8.40;3.83;;;;;;;1.37;71.41;101539.53;5059515;28;20456;-81
2024/03/13 02:25:51;;;;;;;8.20;3.77;;;;;;;1.40;71.66;101543.06;5055439;28;20498;-81
2024/03/13 02:28:18;;;;;;;5.83;3.30;;;;;;;1.34;71.48;101537.75;5047455;28;20463;-81
2024/03/13 02:30:45;;;;;;;7.87;3.60;;;;;;;1.39;71.41;101549.06;5056191;28;20485;-82
2024/03/13 02:33:12;;;;;;;5.47;3.30;;;;;;;1.38;71.22;101536.13;5047734;28;20520;-81
2024/03/13 02:35:42;;;;;;;7.23;3.37;;;;;;;1.28;71.51;101522.13;5048342;28;20564;-82
2024/03/13 02:38:09;;;;;;;6.97;3.47;;;;;;;1.28;71.51;101516.97;5060928;28;20447;-80
2024/03/13 02:40:37;;;;;;;7.33;3.40;;;;;;;1.31;71.43;101532.50;5057754;28;20471;-80
2024/03/13 02:43:04;;;;;;;7.67;3.57;;;;;;;1.29;71.36;101522.97;5055084;28;20529;-81
2024/03/13 02:45:32;;;;;;;5.33;3.27;;;;;;;1.28;71.25;101529.84;5047302;28;20446;-80
2024/03/13 02:47:59;;;;;;;7.30;3.27;;;;;;;1.40;71.50;101540.50;5029421;28;20447;-80
2024/03/13 02:50:28;;;;;;;7.90;3.00;;;;;;;1.42;71.36;101543.09;5061856;28;20439;-80
2024/03/13 02:52:55;;;;;;;5.60;3.50;;;;;;;1.33;71.23;101525.66;5059122;28;20440;-82
2024/03/13 02:55:21;;;;;;;6.40;3.43;;;;;;;1.34;71.62;101532.59;5042544;28;20488;-81
2024/03/13 02:57:49;;;;;;;6.33;3.40;;;;;;;1.30;71.48;101523.00;5057017;28;20480;-82
2024/03/13 03:00:17;;;;;;;6.00;3.20;;;;;;;1.36;71.65;101533.50;5054410;28;20437;-82
2024/03/13 03:02:44;;;;;;;5.00;3.00;;;;;;;1.37;71.33;101531.81;5048079;28;20457;-82
2024/03/13 03:05:12;;;;;;;8.00;3.57;;;;;;;1.37;71.28;101529.22;5058907;28;20457;-81
2024/03/13 03:07:39;;;;;;;9.83;3.90;;;;;;;1.36;71.37;101538.66;5041700;28;20426;-82
2024/03/13 03:10:07;;;;;;;7.23;3.87;;;;;;;1.29;71.46;101522.97;5035874;28;20450;-81
2024/03/13 03:12:34;;;;;;;9.30;3.80;;;;;;;1.43;71.31;101547.44;5022210;28;20480;-82
2024/03/13 03:15:02;;;;;;;5.87;3.33;;;;;;;1.40;71.61;101539.63;5031498;28;20484;-82
2024/03/13 03:17:31;;;;;;;7.07;3.67;;;;;;;1.40;71.29;101543.06;5019093;28;20490;-81
2024/03/13 03:19:58;;;;;;;7.57;3.90;;;;;;;1.29;71.50;101522.97;5035746;28;20438;-81
2024/03/13 03:22:25;;;;;;;6.97;3.80;;;;;;;1.43;71.44;101540.56;5038473;28;21024;-81
2024/03/13 03:24:55;;;;;;;9.17;4.53;;;;;;;1.40;71.62;101532.75;5031732;28;20551;-83
2024/03/13 03:27:23;;;;;;;8.33;3.80;;;;;;;1.45;71.52;101543.19;5040134;28;20455;-81
2024/03/13 03:29:50;;;;;;;7.87;4.27;;;;;;;1.33;71.43;101517.94;5038479;28;20443;-81
2024/03/13 03:32:17;;;;;;;11.90;4.23;;;;;;;1.40;71.27;101535.34;5038701;28;20439;-81
2024/03/13 03:34:44;;;;;;;8.13;3.53;;;;;;;1.31;71.47;101506.72;5041837;28;20483;-82
2024/03/13 03:37:13;;;;;;;5.63;3.63;;;;;;;1.36;71.32;101518.03;5041053;28;20445;-81
2024/03/13 03:39:40;;;;;;;6.53;3.60;;;;;;;1.39;71.39;101523.28;5032845;28;20983;-81
2024/03/13 03:42:07;;;;;;;6.67;3.40;;;;;;;1.42;71.81;101525.94;5032331;28;20491;-81
2024/03/13 03:44:35;;;;;;;7.90;3.73;;;;;;;1.36;71.72;101515.47;5033011;28;20452;-81
2024/03/13 03:47:02;;;;;;;10.90;4.83;;;;;;;1.45;71.26;101528.59;5028126;28;20472;-81
2024/03/13 03:49:29;;;;;;;11.23;4.40;;;;;;;1.39;71.62;101518.13;5020693;28;20444;-81
2024/03/13 03:51:57;;;;;;;7.97;3.77;;;;;;;1.41;71.44;101529.31;5037801;28;20519;-80
2024/03/13 03:54:24;;;;;;;16.90;4.30;;;;;;;1.45;71.73;101525.16;5034344;28;20979;-80
2024/03/13 03:56:52;;;;;;;7.87;4.30;;;;;;;1.46;71.58;101526.88;5037286;28;20489;-82
2024/03/13 03:59:19;;;;;;;8.67;5.20;;;;;;;1.38;71.78;101511.19;5039472;28;20906;-80
2024/03/13 04:01:46;;;;;;;8.60;4.20;;;;;;;1.43;71.51;101509.63;5035469;28;20464;-82
2024/03/13 04:04:14;;;;;;;12.97;4.97;;;;;;;1.40;71.62;101509.53;5025368;28;20456;-81
2024/03/13 04:06:43;;;;;;;13.73;5.67;;;;;;;1.40;71.85;101506.97;5047989;28;20469;-81
2024/03/13 04:09:15;;;;;;;11.87;5.10;;;;;;;1.47;71.72;101518.31;5048796;28;20541;-81
2024/03/13 04:11:43;;;;;;;18.83;6.27;;;;;;;1.38;71.92;101505.19;5036120;28;20450;-81
2024/03/13 04:14:10;;;;;;;21.20;7.63;;;;;;;1.46;72.05;101517.44;5051640;28;20453;-81
2024/03/13 04:16:38;;;;;;;16.53;6.73;;;;;;;1.49;72.26;101514.06;5047659;28;20490;-80
2024/03/13 04:19:06;;;;;;;20.53;7.00;;;;;;;1.41;71.87;101506.13;5044540;28;20445;-81
2024/03/13 04:21:33;;;;;;;20.33;7.37;;;;;;;1.46;72.06;101509.69;5034877;28;20629;-82
2024/03/13 04:24:00;;;;;;;21.73;7.37;;;;;;;1.32;71.97;101482.69;5047911;28;20514;-81
2024/03/13 04:26:29;;;;;;;18.20;7.27;;;;;;;1.47;71.83;101505.41;5040907;28;20442;-81
2024/03/13 04:28:57;;;;;;;14.73;6.33;;;;;;;1.40;72.10;101485.47;5043211;28;20458;-81
2024/03/13 04:31:26;;;;;;;19.67;7.63;;;;;;;1.51;72.09;101503.81;5050655;28;20447;-82
2024/03/13 04:33:53;;;;;;;18.07;7.30;;;;;;;1.39;71.99;101492.34;5053454;28;20446;-82
2024/03/13 04:36:21;;;;;;;21.53;7.53;;;;;;;1.44;71.94;101495.88;5053428;28;21050;-82
2024/03/13 04:38:51;;;;;;;20.77;7.97;;;;;;;1.51;72.63;101506.38;5049859;28;20486;-81
2024/03/13 04:41:18;;;;;;;20.50;7.20;;;;;;;1.46;72.07;101499.38;5057019;28;20462;-81
2024/03/13 04:43:45;;;;;;;18.47;7.47;;;;;;;1.56;72.17;101510.84;5055560;28;20449;-82
2024/03/13 04:46:16;;;;;;;17.13;6.93;;;;;;;1.45;72.42;101497.66;5050701;28;20455;-82
2024/03/13 04:48:44;;;;;;;19.67;6.70;;;;;;;1.57;72.37;101511.69;5044865;28;20508;-81
2024/03/13 04:51:11;;;;;;;16.03;6.57;;;;;;;1.56;72.34;101504.78;5049163;28;20483;-81
2024/03/13 04:53:38;;;;;;;13.83;6.70;;;;;;;1.56;72.60;101497.94;5053872;28;20512;-81
2024/03/13 04:56:06;;;;;;;22.00;8.07;;;;;;;1.53;72.55;101496.97;5038523;28;20482;-82
2024/03/13 04:58:33;;;;;;;18.80;7.70;;;;;;;1.51;72.56;101490.91;5056882;28;20870;-83
2024/03/13 05:01:01;;;;;;;14.20;6.50;;;;;;;1.49;72.38;101480.53;5052722;28;20466;-82
2024/03/13 05:03:28;;;;;;;17.17;6.60;;;;;;;1.57;72.44;101494.50;5046746;28;20446;-82
2024/03/13 05:05:55;;;;;;;18.40;7.03;;;;;;;1.48;72.23;101471.94;5040545;28;20570;-81
2024/03/13 05:08:22;;;;;;;18.87;7.23;;;;;;;1.58;72.44;101487.66;5051870;28;20464;-81
2024/03/13 05:10:49;;;;;;;18.67;7.23;;;;;;;1.47;72.26;101470.19;5052121;28;21155;-81
2024/03/13 05:13:17;;;;;;;19.37;7.43;;;;;;;1.56;72.51;101472.16;5036061;28;20964;-82
2024/03/13 05:15:45;;;;;;;16.10;7.43;;;;;;;1.44;72.50;101454.63;5051577;28;20522;-82
2024/03/13 05:18:13;;;;;;;14.77;6.30;;;;;;;1.53;72.37;101471.16;5048750;28;20442;-82
2024/03/13 05:20:40;;;;;;;17.07;8.27;;;;;;;1.45;72.54;101460.69;5052970;28;20485;-81
2024/03/13 05:23:08;;;;;;;17.17;8.17;;;;;;;1.57;72.77;101475.59;5056517;28;20462;-81
2024/03/13 05:25:36;;;;;;;16.87;6.63;;;;;;;1.54;72.52;101476.38;5054772;28;20548;-82
2024/03/13 05:28:03;;;;;;;16.20;7.07;;;;;;;1.58;72.51;101483.34;5050680;28;20446;-83
2024/03/13 05:30:30;;;;;;;17.40;7.33;;;;;;;1.48;72.57;101466.78;5048888;28;20461;-81
2024/03/13 05:32:57;;;;;;;13.10;6.47;;;;;;;1.50;72.61;101463.34;5045854;28;20457;-80
2024/03/13 05:35:26;;;;;;;13.60;6.70;;;;;;;1.50;72.50;101460.78;5050306;28;20490;-80
2024/03/13 05:37:59;;;;;;;14.93;6.43;;;;;;;1.56;72.60;101464.41;5068722;28;20455;-80
2024/03/13 05:40:26;;;;;;;13.97;6.53;;;;;;;1.60;72.55;101468.78;5050649;28;20488;-79
2024/03/13 05:42:53;;;;;;;16.17;6.00;;;;;;;1.55;72.48;101464.34;5048872;28;20525;-80
2024/03/13 05:45:20;;;;;;;15.17;6.60;;;;;;;1.60;72.94;101475.66;5050010;28;20451;-81
2024/03/13 05:47:48;;;;;;;11.47;6.20;;;;;;;1.61;72.37;101477.41;5047065;28;20837;-81
2024/03/13 05:50:17;;;;;;;16.03;6.60;;;;;;;1.61;72.48;101475.69;5056859;28;20938;-80
2024/03/13 05:52:45;;;;;;;17.53;7.07;;;;;;;1.58;72.86;101472.16;5059282;28;20536;-80
2024/03/13 05:55:13;;;;;;;15.23;6.60;;;;;;;1.59;72.57;101466.16;5047107;28;20932;-79
2024/03/13 05:57:39;;;;;;;13.87;6.40;;;;;;;1.62;72.56;101474.00;5053443;28;20443;-79
2024/03/13 06:00:12;;;;;;;17.17;7.33;;;;;;;1.52;72.57;101453.97;5046794;28;20451;-80
2024/03/13 06:02:40;;;;;;;15.33;6.73;;;;;;;1.59;72.76;101476.47;5034146;28;20443;-82
2024/03/13 06:05:11;;;;;;;15.43;6.23;;;;;;;1.55;72.90;101467.81;5058980;28;20526;-80
2024/03/13 06:07:39;;;;;;;14.03;6.37;;;;;;;1.51;72.85;101462.56;5056888;28;20472;-80
2024/03/13 06:10:09;;;;;;;13.77;5.93;;;;;;;1.58;72.77;101467.00;5043954;28;20438;-79
2024/03/13 06:12:37;;;;;;;15.73;6.50;;;;;;;1.60;72.86;101481.69;5053547;28;20528;-82
2024/03/13 06:15:07;;;;;;;14.67;6.27;;;;;;;1.64;72.84;101482.63;5048857;28;20458;-81
2024/03/13 06:17:34;;;;;;;14.17;6.17;;;;;;;1.53;72.80;101460.84;5048564;28;20488;-80
2024/03/13 06:20:03;;;;;;;10.77;6.13;;;;;;;1.58;72.62;101456.69;5047942;28;20457;-80
2024/03/13 06:22:30;;;;;;;11.60;6.10;;;;;;;1.68;73.20;101476.75;5058873;28;20441;-79
2024/03/13 06:25:00;;;;;;;12.60;5.87;;;;;;;1.62;72.81;101469.72;5046485;28;20461;-79
2024/03/13 06:27:28;;;;;;;12.03;6.63;;;;;;;1.59;72.87;101472.22;5052892;28;20942;-80
2024/03/13 06:29:58;;;;;;;11.03;5.53;;;;;;;1.69;73.08;101483.63;5051033;28;20928;-81
2024/03/13 06:32:28;;;;;;;11.77;6.40;;;;;;;1.64;73.22;101475.75;5054831;28;20817;-81
2024/03/13 06:34:56;;;;;;;12.67;6.37;;;;;;;1.62;73.15;101466.28;5049882;28;20533;-80
2024/03/13 06:37:24;;;;;;;14.87;6.57;;;;;;;1.63;72.99;101465.44;5049953;28;20739;-81
2024/03/13 06:39:51;;;;;;;11.47;6.13;;;;;;;1.71;72.86;101479.41;5046348;28;20458;-81
2024/03/13 06:42:18;;;;;;;13.17;6.30;;;;;;;1.71;73.01;101479.41;5050992;28;20940;-81
2024/03/13 06:44:46;;;;;;;13.37;6.33;;;;;;;1.59;72.97;101453.28;5055560;28;20430;-80
2024/03/13 06:47:13;;;;;;;13.53;6.70;;;;;;;1.62;72.88;101459.41;5052253;28;20442;-80
2024/03/13 06:49:40;;;;;;;14.17;6.97;;;;;;;1.74;73.25;101474.31;5043486;28;20437;-80
2024/03/13 06:52:07;;;;;;;12.17;6.50;;;;;;;1.63;72.75;101461.13;5053540;28;20434;-80
2024/03/13 06:54:36;;;;;;;14.40;6.50;;;;;;;1.66;73.16;101470.66;5048855;28;20465;-80
2024/03/13 06:57:03;;;;;;;12.90;6.23;;;;;;;1.70;72.86;101469.88;5053542;28;20477;-80
2024/03/13 06:59:30;;;;;;;11.50;6.20;;;;;;;1.74;73.29;101474.31;5058191;28;20433;-79
2024/03/13 07:02:00;;;;;;;12.10;6.23;;;;;;;1.67;73.21;101467.22;5049947;28;20444;-79
2024/03/13 07:04:27;;;;;;;12.30;6.77;;;;;;;1.78;72.81;101481.28;5046365;28;20476;-80
2024/03/13 07:06:57;;;;;;;13.83;7.17;;;;;;;1.75;73.29;101477.75;5052569;28;21022;-81
2024/03/13 07:09:25;;;;;;;12.33;6.33;;;;;;;1.80;73.13;101489.94;5050897;28;20451;-80
2024/03/13 07:11:52;;;;;;;11.20;5.63;;;;;;;1.75;73.35;101481.19;5059529;28;20514;-80
2024/03/13 07:14:19;;;;;;;11.87;5.90;;;;;;;1.83;72.98;101487.44;5058327;28;20493;-81
2024/03/13 07:16:46;;;;;;;11.43;6.47;;;;;;;1.85;73.34;101488.34;5051002;28;20478;-79
2024/03/13 07:19:13;;;;;;;14.57;6.93;;;;;;;1.84;73.17;101473.69;5053546;28;20452;-80
2024/03/13 07:21:40;;;;;;;10.07;6.07;;;;;;;1.73;73.30;101451.91;5052480;28;20491;-79
2024/03/13 07:24:07;;;;;;;12.90;6.07;;;;;;;1.78;73.08;101455.47;5050557;28;20929;-79
2024/03/13 07:26:33;;;;;;;14.33;6.60;;;;;;;1.92;73.28;101468.72;5037483;28;20451;-79
2024/03/13 07:29:01;;;;;;;13.93;6.70;;;;;;;1.89;72.93;101468.63;5054705;28;20452;-78
2024/03/13 07:31:29;;;;;;;11.63;6.47;;;;;;;1.87;73.37;101460.84;5042422;28;20864;-80
2024/03/13 07:33:57;;;;;;;12.83;7.20;;;;;;;1.93;73.15;101470.44;5050390;28;20529;-81
2024/03/13 07:36:24;;;;;;;11.97;6.33;;;;;;;1.83;73.17;101456.47;5056974;28;20478;-81
2024/03/13 07:38:52;;;;;;;13.17;6.57;;;;;;;1.96;73.28;101483.44;5054493;28;20435;-79
2024/03/13 07:41:19;;;;;;;11.50;6.37;;;;;;;1.91;73.02;101473.00;5060528;28;20534;-80
2024/03/13 07:43:46;;;;;;;11.60;6.80;;;;;;;1.97;73.34;101481.72;5056429;28;20458;-80
2024/03/13 07:46:15;;;;;;;13.60;7.17;;;;;;;1.89;73.44;101474.66;5049926;28;20459;-81
2024/03/13 07:48:42;;;;;;;13.73;6.70;;;;;;;1.98;73.12;101478.31;5050731;28;20441;-79
2024/03/13 07:51:09;;;;;;;14.93;6.40;;;;;;;1.99;73.13;101477.47;5053283;28;20538;-80
2024/03/13 07:53:37;;;;;;;12.57;6.60;;;;;;;1.93;73.31;101467.88;5054164;28;20454;-79
2024/03/13 07:56:05;;;;;;;11.00;6.30;;;;;;;1.96;72.81;101472.22;5041351;28;20823;-80
2024/03/13 07:58:32;;;;;;;12.87;6.70;;;;;;;2.06;73.07;101480.22;5055936;28;20431;-79
2024/03/13 08:01:01;;;;;;;11.13;6.30;;;;;;;2.08;73.06;101481.16;5042063;28;20439;-79
2024/03/13 08:03:28;;;;;;;13.23;5.87;;;;;;;2.12;73.17;101476.91;5053025;28;20451;-78
2024/03/13 08:05:55;;;;;;;11.50;5.97;;;;;;;2.14;73.29;101485.59;5052793;28;20542;-79
2024/03/13 08:08:22;;;;;;;13.17;6.63;;;;;;;2.17;73.01;101489.94;5051170;28;20465;-79
2024/03/13 08:10:50;;;;;;;13.67;6.83;;;;;;;2.03;72.84;101466.38;5058437;28;20458;-79
2024/03/13 08:13:17;;;;;;;12.87;7.20;;;;;;;2.20;72.78;101480.56;5055105;28;20445;-80
2024/03/13 08:15:45;;;;;;;12.73;6.97;;;;;;;2.12;73.16;101472.63;5048021;28;20445;-80
2024/03/13 08:18:15;;;;;;;13.93;6.53;;;;;;;2.23;73.23;101490.94;5051209;28;20492;-80
2024/03/13 08:20:42;;;;;;;12.30;6.27;;;;;;;2.17;73.15;101470.16;5052167;28;20451;-79
2024/03/13 08:23:10;;;;;;;17.13;7.30;;;;;;;2.23;73.18;101475.47;5056334;28;20970;-80
2024/03/13 08:25:37;;;;;;;12.83;6.90;;;;;;;2.28;73.23;101480.75;5051535;28;20491;-79
2024/03/13 08:28:07;;;;;;;15.30;6.57;;;;;;;2.27;73.17;101474.72;5056868;28;20441;-81
2024/03/13 08:30:34;;;;;;;10.03;6.37;;;;;;;2.20;73.18;101459.91;5046049;28;20507;-79
2024/03/13 08:33:01;;;;;;;14.23;6.87;;;;;;;2.22;72.85;101460.81;5052106;28;20435;-79
2024/03/13 08:35:29;;;;;;;12.03;6.23;;;;;;;2.30;72.86;101464.44;5056205;28;20508;-79
2024/03/13 08:37:59;;;;;;;12.20;6.40;;;;;;;2.40;73.00;101478.41;5056000;28;20891;-80
2024/03/13 08:40:28;;;;;;;11.60;6.40;;;;;;;2.35;72.67;101467.97;5042228;28;20530;-79
2024/03/13 08:42:54;;;;;;;13.67;6.20;;;;;;;2.37;72.82;101453.41;5056497;28;20447;-79
2024/03/13 08:45:22;;;;;;;14.87;6.47;;;;;;;2.43;72.94;101456.97;5049937;28;20538;-80
2024/03/13 08:47:49;;;;;;;12.67;5.97;;;;;;;2.48;73.12;101461.38;5052706;28;20949;-80
2024/03/13 08:50:16;;;;;;;11.10;6.20;;;;;;;2.42;72.89;101452.66;5059300;28;20602;-79
2024/03/13 08:52:43;;;;;;;11.57;6.67;;;;;;;2.40;72.82;101449.16;5057124;28;20430;-79
2024/03/13 08:55:10;;;;;;;15.13;6.50;;;;;;;2.54;72.88;101465.81;5044535;28;20433;-80
2024/03/13 08:57:37;;;;;;;11.33;6.07;;;;;;;2.56;72.63;101458.97;5055261;28;20484;-79
2024/03/13 09:00:05;;;;;;;13.40;6.27;;;;;;;2.50;72.74;101441.63;5052016;28;20456;-80
2024/03/13 09:02:32;;;;;;;13.57;6.40;;;;;;;2.58;72.52;101459.84;5053963;28;20508;-79
2024/03/13 09:04:59;;;;;;;11.63;6.40;;;;;;;2.56;72.66;101446.06;5049264;28;20444;-79
2024/03/13 09:07:27;;;;;;;13.23;5.70;;;;;;;2.56;72.63;101444.34;5053277;28;20478;-80
2024/03/13 09:09:54;;;;;;;9.27;5.10;;;;;;;2.68;72.53;101458.34;5046264;28;20455;-78
2024/03/13 09:12:21;;;;;;;9.00;5.23;;;;;;;2.75;72.55;101465.38;5049704;28;20451;-79
2024/03/13 09:14:49;;;;;;;9.20;5.77;;;;;;;2.66;72.41;101439.34;5035870;28;20543;-80
2024/03/13 09:17:16;;;;;;;10.13;5.53;;;;;;;2.68;72.35;101438.56;5052607;28;20846;-81
2024/03/13 09:19:43;;;;;;;11.80;6.13;;;;;;;2.71;72.30;101437.75;5051390;28;20480;-79
2024/03/13 09:22:11;;;;;;;10.93;5.60;;;;;;;2.72;72.36;101430.00;5052123;28;20828;-80
2024/03/13 09:24:39;;;;;;;9.27;5.87;;;;;;;2.81;72.01;101439.66;5043933;28;20518;-79
2024/03/13 09:27:06;;;;;;;8.53;4.23;;;;;;;2.89;71.94;101453.59;5051484;28;20575;-79
2024/03/13 09:29:33;;;;;;;10.17;5.23;;;;;;;2.80;72.03;101437.94;5052008;28;20433;-79
2024/03/13 09:32:00;;;;;;;7.63;4.67;;;;;;;2.90;71.82;101444.13;5049291;28;20451;-78
2024/03/13 09:34:29;;;;;;;9.17;4.67;;;;;;;2.97;71.84;101456.34;5051394;28;20980;-80
2024/03/13 09:36:57;;;;;;;9.83;5.20;;;;;;;2.98;71.77;101447.75;5054207;28;20486;-80
2024/03/13 09:39:24;;;;;;;6.43;4.57;;;;;;;3.06;71.64;101454.81;5045803;28;20872;-78
2024/03/13 09:41:53;;;;;;;8.33;5.20;;;;;;;2.97;71.72;101436.53;5052553;28;20948;-80
2024/03/13 09:44:20;;;;;;;8.47;5.00;;;;;;;3.12;71.72;101466.09;5052967;28;20484;-81
2024/03/13 09:46:48;;;;;;;9.90;5.60;;;;;;;3.16;71.42;101465.34;5039202;28;20452;-80
2024/03/13 09:49:15;;;;;;;8.10;5.33;;;;;;;3.18;71.18;101480.00;5033656;28;20791;-79
2024/03/13 09:51:43;;;;;;;9.53;4.80;;;;;;;3.13;71.14;101463.56;5048767;28;20450;-80
2024/03/13 09:54:12;;;;;;;6.93;4.63;;;;;;;3.24;71.33;101477.56;5048115;28;20855;-79
2024/03/13 09:56:40;;;;;;;8.40;4.83;;;;;;;3.25;70.99;101484.47;5051223;28;20930;-79
2024/03/13 09:59:08;;;;;;;7.30;4.90;;;;;;;3.22;70.87;101468.91;5053905;28;20452;-80
2024/03/13 10:01:36;;;;;;;10.77;4.80;;;;;;;3.26;70.99;101456.88;5057163;28;20451;-80
2024/03/13 10:04:10;;;;;;;7.80;4.63;;;;;;;3.34;71.18;101457.91;5046951;28;20507;-79
2024/03/13 10:06:37;;;;;;;7.63;4.30;;;;;;;3.37;71.19;101467.44;5048254;28;20994;-80
2024/03/13 10:09:11;;;;;;;10.10;5.23;;;;;;;3.44;71.14;101475.34;5045799;28;20446;-79
2024/03/13 10:11:39;;;;;;;9.50;4.43;;;;;;;3.37;70.83;101460.53;5053393;28;20445;-80
2024/03/13 10:14:07;;;;;;;7.90;5.33;;;;;;;3.48;70.64;101471.09;5047287;28;21037;-79
2024/03/13 10:16:34;;;;;;;8.97;4.97;;;;;;;3.41;70.74;101456.28;5047781;28;20859;-80
2024/03/13 10:19:01;;;;;;;7.70;4.70;;;;;;;3.47;70.67;101464.19;5050534;28;20443;-80
2024/03/13 10:21:28;;;;;;;7.97;4.50;;;;;;;3.54;70.69;101473.78;5050829;28;20439;-81
2024/03/13 10:23:55;;;;;;;6.70;3.97;;;;;;;3.59;70.46;101473.88;5045577;28;20515;-80
2024/03/13 10:26:22;;;;;;;9.60;4.33;;;;;;;3.49;70.44;101473.69;5056873;28;20449;-79
2024/03/13 10:28:49;;;;;;;6.23;4.33;;;;;;;3.60;70.60;101481.66;5045568;28;20456;-79
2024/03/13 10:31:17;;;;;;;7.30;4.07;;;;;;;3.62;70.47;101474.78;5047882;28;20519;-80
2024/03/13 10:33:44;;;;;;;8.50;4.57;;;;;;;3.66;70.27;101478.28;5055034;28;20435;-79
2024/03/13 10:36:13;;;;;;;6.60;3.90;;;;;;;3.61;70.16;101466.97;5066613;28;20429;-79
2024/03/13 10:38:41;;;;;;;10.63;4.43;;;;;;;3.58;70.06;101457.47;5053166;28;20477;-79
2024/03/13 10:41:08;;;;;;;8.00;4.60;;;;;;;3.71;70.09;101480.09;5059244;28;20477;-80
2024/03/13 10:43:35;;;;;;;5.47;4.20;;;;;;;3.68;70.09;101464.53;5051183;28;20462;-79
2024/03/13 10:46:03;;;;;;;8.67;4.00;;;;;;;3.64;70.10;101456.69;5046446;28;20445;-79
2024/03/13 10:48:32;;;;;;;7.90;3.73;;;;;;;3.74;70.40;101474.97;5054167;28;20440;-80
2024/03/13 10:51:00;;;;;;;6.93;4.70;;;;;;;3.71;69.79;101468.88;5041072;28;20520;-80
2024/03/13 10:53:27;;;;;;;6.07;3.40;;;;;;;3.76;69.84;101472.44;5060627;28;20443;-80
2024/03/13 10:55:54;;;;;;;5.57;3.17;;;;;;;3.74;69.64;101462.03;5056972;28;20442;-79
2024/03/13 10:58:21;;;;;;;5.67;3.83;;;;;;;3.77;69.64;101465.53;5059404;28;20498;-80
2024/03/13 11:00:48;;;;;;;5.87;3.90;;;;;;;3.69;69.83;101432.63;5045443;28;20453;-80
2024/03/13 11:03:15;;;;;;;6.97;3.70;;;;;;;3.75;69.80;101442.19;5053852;28;20455;-79
2024/03/13 11:05:43;;;;;;;7.80;4.00;;;;;;;3.69;69.66;101422.28;5058878;28;20473;-81
2024/03/13 11:08:10;;;;;;;5.33;3.50;;;;;;;3.79;69.55;101438.84;5052773;28;20441;-80
2024/03/13 11:10:37;;;;;;;7.33;3.70;;;;;;;3.79;69.15;101435.38;5047085;28;20456;-79
2024/03/13 11:13:05;;;;;;;6.47;3.50;;;;;;;3.78;69.28;101433.63;5050169;28;20529;-80
2024/03/13 11:15:32;;;;;;;6.13;3.80;;;;;;;3.74;69.62;101428.41;5048752;28;20901;-79
2024/03/13 11:18:01;;;;;;;10.70;3.83;;;;;;;3.82;69.61;101435.44;5053201;28;20482;-79
2024/03/13 11:20:28;;;;;;;8.27;3.33;;;;;;;3.76;69.69;101419.81;5041550;28;20527;-80
2024/03/13 11:22:55;;;;;;;6.20;3.70;;;;;;;3.71;69.04;101397.28;5051439;28;20485;-80
2024/03/13 11:25:22;;;;;;;8.10;4.60;;;;;;;3.84;69.07;101424.25;5039811;28;20450;-79
2024/03/13 11:27:51;;;;;;;8.43;3.90;;;;;;;3.85;68.65;101432.88;5053937;28;21004;-81
2024/03/13 11:30:19;;;;;;;9.60;3.67;;;;;;;3.80;68.87;101425.03;5043347;28;20454;-80
2024/03/13 11:32:48;;;;;;;5.27;3.20;;;;;;;3.86;68.95;101421.66;5052361;28;20852;-80
2024/03/13 11:35:16;;;;;;;6.93;3.70;;;;;;;3.76;68.71;101404.28;5058420;28;20450;-80
2024/03/13 11:37:44;;;;;;;7.40;3.87;;;;;;;3.89;68.18;101427.75;5062540;28;21014;-80
2024/03/13 11:40:11;;;;;;;7.27;3.53;;;;;;;3.90;68.68;101413.97;5043049;28;20784;-80
2024/03/13 11:42:40;;;;;;;7.47;3.70;;;;;;;3.86;68.31;101411.31;5055392;28;20445;-80
2024/03/13 11:45:23;;;;;;;7.47;3.60;;;;;;;3.92;68.76;101414.00;5046734;28;20452;-80
2024/03/13 11:47:52;;;;;;;8.30;3.50;;;;;;;3.95;68.54;101416.63;5050620;28;20976;-80
2024/03/13 11:50:19;;;;;;;5.10;3.23;;;;;;;3.89;68.45;101411.34;5058113;28;20979;-81